sensor_id;sensor_type;location;lat;lon;timestamp;P1;durP1;ratioP1;P2;durP2;ratioP2
23608;SDS011;11982;50.810;4.442;2023-01-04T00:00:08;5.65;;;2.17;;
23608;SDS011;11982;50.810;4.442;2023-01-04T00:02:34;4.63;;;2.35;;
23608;SDS011;11982;50.810;4.442;2023-01-04T00:05:00;8.98;;;2.50;;
23608;SDS011;11982;50.810;4.442;2023-01-04T00:07:27;9.18;;;2.55;;
23608;SDS011;11982;50.810;4.442;2023-01-04T00:09:54;11.35;;;2.65;;
23608;SDS011;11982;50.810;4.442;2023-01-04T00:12:19;11.48;;;2.65;;
23608;SDS011;11982;50.810;4.442;2023-01-04T00:14:45;6.97;;;2.97;;
23608;SDS011;11982;50.810;4.442;2023-01-04T00:17:11;6.75;;;2.53;;
23608;SDS011;11982;50.810;4.442;2023-01-04T00:19:37;7.47;;;2.80;;
23608;SDS011;11982;50.810;4.442;2023-01-04T00:22:02;12.75;;;2.60;;
23608;SDS011;11982;50.810;4.442;2023-01-04T00:24:28;7.53;;;2.35;;
23608;SDS011;11982;50.810;4.442;2023-01-04T00:26:54;6.43;;;2.35;;
23608;SDS011;11982;50.810;4.442;2023-01-04T00:29:19;6.60;;;2.33;;
23608;SDS011;11982;50.810;4.442;2023-01-04T00:31:45;4.18;;;2.10;;
23608;SDS011;11982;50.810;4.442;2023-01-04T00:34:12;7.32;;;2.17;;
23608;SDS011;11982;50.810;4.442;2023-01-04T00:36:39;4.80;;;2.05;;
23608;SDS011;11982;50.810;4.442;2023-01-04T00:39:04;4.68;;;1.88;;
23608;SDS011;11982;50.810;4.442;2023-01-04T00:41:37;5.25;;;2.15;;
23608;SDS011;11982;50.810;4.442;2023-01-04T00:44:04;4.43;;;1.80;;
23608;SDS011;11982;50.810;4.442;2023-01-04T00:46:31;4.93;;;2.10;;
23608;SDS011;11982;50.810;4.442;2023-01-04T00:48:57;5.68;;;1.85;;
23608;SDS011;11982;50.810;4.442;2023-01-04T00:51:23;7.55;;;2.20;;
23608;SDS011;11982;50.810;4.442;2023-01-04T00:53:49;4.03;;;2.30;;
23608;SDS011;11982;50.810;4.442;2023-01-04T00:56:15;5.93;;;1.83;;
23608;SDS011;11982;50.810;4.442;2023-01-04T00:58:40;4.30;;;2.15;;
23608;SDS011;11982;50.810;4.442;2023-01-04T01:01:06;5.78;;;2.38;;
23608;SDS011;11982;50.810;4.442;2023-01-04T01:03:32;3.05;;;1.88;;
23608;SDS011;11982;50.810;4.442;2023-01-04T01:06:04;1.98;;;1.73;;
23608;SDS011;11982;50.810;4.442;2023-01-04T01:08:31;5.22;;;2.05;;
23608;SDS011;11982;50.810;4.442;2023-01-04T01:11:01;6.38;;;2.03;;
23608;SDS011;11982;50.810;4.442;2023-01-04T01:13:32;3.67;;;2.08;;
23608;SDS011;11982;50.810;4.442;2023-01-04T01:16:06;3.80;;;2.00;;
23608;SDS011;11982;50.810;4.442;2023-01-04T01:18:34;5.35;;;2.28;;
23608;SDS011;11982;50.810;4.442;2023-01-04T01:21:09;6.53;;;2.17;;
23608;SDS011;11982;50.810;4.442;2023-01-04T01:23:39;2.88;;;2.20;;
23608;SDS011;11982;50.810;4.442;2023-01-04T01:26:06;3.90;;;2.13;;
23608;SDS011;11982;50.810;4.442;2023-01-04T01:28:34;2.75;;;1.77;;
23608;SDS011;11982;50.810;4.442;2023-01-04T01:31:10;2.92;;;2.38;;
23608;SDS011;11982;50.810;4.442;2023-01-04T01:33:41;4.38;;;2.30;;
23608;SDS011;11982;50.810;4.442;2023-01-04T01:36:08;6.18;;;2.28;;
23608;SDS011;11982;50.810;4.442;2023-01-04T01:38:35;6.10;;;2.50;;
23608;SDS011;11982;50.810;4.442;2023-01-04T01:41:02;5.60;;;2.55;;
23608;SDS011;11982;50.810;4.442;2023-01-04T01:46:15;6.88;;;2.70;;
23608;SDS011;11982;50.810;4.442;2023-01-04T01:49:22;4.55;;;2.50;;
23608;SDS011;11982;50.810;4.442;2023-01-04T01:54:24;6.38;;;2.58;;
23608;SDS011;11982;50.810;4.442;2023-01-04T01:56:54;5.43;;;2.65;;
23608;SDS011;11982;50.810;4.442;2023-01-04T01:59:21;5.78;;;3.03;;
23608;SDS011;11982;50.810;4.442;2023-01-04T02:01:47;8.73;;;3.60;;
23608;SDS011;11982;50.810;4.442;2023-01-04T02:04:13;3.58;;;2.72;;
23608;SDS011;11982;50.810;4.442;2023-01-04T02:06:41;7.80;;;3.42;;
23608;SDS011;11982;50.810;4.442;2023-01-04T02:09:11;9.45;;;2.95;;
23608;SDS011;11982;50.810;4.442;2023-01-04T02:11:37;6.95;;;3.53;;
23608;SDS011;11982;50.810;4.442;2023-01-04T02:14:03;6.90;;;3.38;;
23608;SDS011;11982;50.810;4.442;2023-01-04T02:25:25;6.72;;;4.45;;
23608;SDS011;11982;50.810;4.442;2023-01-04T02:31:07;8.80;;;4.55;;
23608;SDS011;11982;50.810;4.442;2023-01-04T02:45:48;12.63;;;4.95;;
23608;SDS011;11982;50.810;4.442;2023-01-04T02:48:18;12.13;;;5.00;;
23608;SDS011;11982;50.810;4.442;2023-01-04T02:51:02;16.57;;;5.43;;
23608;SDS011;11982;50.810;4.442;2023-01-04T02:53:32;8.93;;;5.15;;
23608;SDS011;11982;50.810;4.442;2023-01-04T02:56:10;14.32;;;5.78;;
23608;SDS011;11982;50.810;4.442;2023-01-04T03:07:22;13.27;;;5.03;;
23608;SDS011;11982;50.810;4.442;2023-01-04T03:09:59;11.20;;;4.65;;
23608;SDS011;11982;50.810;4.442;2023-01-04T03:12:33;13.35;;;4.63;;
23608;SDS011;11982;50.810;4.442;2023-01-04T03:18:21;9.30;;;4.53;;
23608;SDS011;11982;50.810;4.442;2023-01-04T03:20:51;10.80;;;4.18;;
23608;SDS011;11982;50.810;4.442;2023-01-04T03:23:21;11.05;;;4.20;;
23608;SDS011;11982;50.810;4.442;2023-01-04T03:26:10;6.15;;;3.58;;
23608;SDS011;11982;50.810;4.442;2023-01-04T03:29:03;7.45;;;3.88;;
23608;SDS011;11982;50.810;4.442;2023-01-04T03:31:55;7.47;;;3.95;;
23608;SDS011;11982;50.810;4.442;2023-01-04T03:34:46;9.15;;;3.60;;
23608;SDS011;11982;50.810;4.442;2023-01-04T03:37:48;10.88;;;3.88;;
23608;SDS011;11982;50.810;4.442;2023-01-04T03:40:40;8.95;;;3.80;;
23608;SDS011;11982;50.810;4.442;2023-01-04T03:43:35;8.20;;;3.72;;
23608;SDS011;11982;50.810;4.442;2023-01-04T03:51:54;8.35;;;3.35;;
23608;SDS011;11982;50.810;4.442;2023-01-04T03:54:28;6.88;;;3.55;;
23608;SDS011;11982;50.810;4.442;2023-01-04T03:56:57;10.18;;;3.67;;
23608;SDS011;11982;50.810;4.442;2023-01-04T03:59:24;5.82;;;3.17;;
23608;SDS011;11982;50.810;4.442;2023-01-04T04:01:50;8.20;;;3.85;;
23608;SDS011;11982;50.810;4.442;2023-01-04T04:04:16;8.05;;;3.45;;
23608;SDS011;11982;50.810;4.442;2023-01-04T04:07:01;11.40;;;3.20;;
23608;SDS011;11982;50.810;4.442;2023-01-04T04:09:45;8.00;;;3.60;;
23608;SDS011;11982;50.810;4.442;2023-01-04T04:12:10;8.15;;;3.33;;
23608;SDS011;11982;50.810;4.442;2023-01-04T04:14:36;11.68;;;3.60;;
23608;SDS011;11982;50.810;4.442;2023-01-04T04:17:02;9.50;;;3.25;;
23608;SDS011;11982;50.810;4.442;2023-01-04T04:19:27;11.18;;;3.50;;
23608;SDS011;11982;50.810;4.442;2023-01-04T04:21:53;6.93;;;3.15;;
23608;SDS011;11982;50.810;4.442;2023-01-04T04:24:20;6.70;;;2.58;;
23608;SDS011;11982;50.810;4.442;2023-01-04T04:26:56;6.10;;;2.53;;
23608;SDS011;11982;50.810;4.442;2023-01-04T04:29:22;6.57;;;2.38;;
23608;SDS011;11982;50.810;4.442;2023-01-04T04:31:48;4.90;;;2.30;;
23608;SDS011;11982;50.810;4.442;2023-01-04T04:34:14;5.47;;;2.10;;
23608;SDS011;11982;50.810;4.442;2023-01-04T04:36:40;6.78;;;2.50;;
23608;SDS011;11982;50.810;4.442;2023-01-04T04:39:06;7.88;;;2.35;;
23608;SDS011;11982;50.810;4.442;2023-01-04T04:41:32;3.88;;;2.22;;
23608;SDS011;11982;50.810;4.442;2023-01-04T04:44:13;3.83;;;1.60;;
23608;SDS011;11982;50.810;4.442;2023-01-04T04:46:40;10.02;;;2.20;;
23608;SDS011;11982;50.810;4.442;2023-01-04T04:49:07;3.20;;;1.92;;
23608;SDS011;11982;50.810;4.442;2023-01-04T04:51:33;8.25;;;1.65;;
23608;SDS011;11982;50.810;4.442;2023-01-04T04:53:59;2.72;;;1.30;;
23608;SDS011;11982;50.810;4.442;2023-01-04T04:56:25;3.78;;;1.85;;
23608;SDS011;11982;50.810;4.442;2023-01-04T04:58:51;6.88;;;1.60;;
23608;SDS011;11982;50.810;4.442;2023-01-04T05:01:17;4.82;;;1.80;;
23608;SDS011;11982;50.810;4.442;2023-01-04T05:03:42;4.65;;;1.50;;
23608;SDS011;11982;50.810;4.442;2023-01-04T05:06:08;6.30;;;1.40;;
23608;SDS011;11982;50.810;4.442;2023-01-04T05:08:34;5.82;;;1.60;;
23608;SDS011;11982;50.810;4.442;2023-01-04T05:11:03;4.97;;;1.40;;
23608;SDS011;11982;50.810;4.442;2023-01-04T05:13:33;2.60;;;1.48;;
23608;SDS011;11982;50.810;4.442;2023-01-04T05:16:00;3.47;;;1.42;;
23608;SDS011;11982;50.810;4.442;2023-01-04T05:18:27;4.40;;;1.60;;
23608;SDS011;11982;50.810;4.442;2023-01-04T05:20:52;4.80;;;1.60;;
23608;SDS011;11982;50.810;4.442;2023-01-04T05:23:21;4.70;;;1.80;;
23608;SDS011;11982;50.810;4.442;2023-01-04T05:25:49;2.03;;;1.33;;
23608;SDS011;11982;50.810;4.442;2023-01-04T05:28:18;3.03;;;1.50;;
23608;SDS011;11982;50.810;4.442;2023-01-04T05:30:43;3.60;;;1.30;;
23608;SDS011;11982;50.810;4.442;2023-01-04T05:33:25;4.30;;;1.58;;
23608;SDS011;11982;50.810;4.442;2023-01-04T05:35:52;4.93;;;1.50;;
23608;SDS011;11982;50.810;4.442;2023-01-04T05:38:19;5.78;;;1.90;;
23608;SDS011;11982;50.810;4.442;2023-01-04T05:40:46;3.58;;;1.48;;
23608;SDS011;11982;50.810;4.442;2023-01-04T05:43:13;8.57;;;1.60;;
23608;SDS011;11982;50.810;4.442;2023-01-04T05:45:39;5.32;;;1.60;;
23608;SDS011;11982;50.810;4.442;2023-01-04T05:48:07;3.47;;;1.13;;
23608;SDS011;11982;50.810;4.442;2023-01-04T05:50:33;3.58;;;1.30;;
23608;SDS011;11982;50.810;4.442;2023-01-04T05:52:59;4.28;;;1.50;;
23608;SDS011;11982;50.810;4.442;2023-01-04T05:55:24;9.40;;;1.65;;
23608;SDS011;11982;50.810;4.442;2023-01-04T05:57:50;5.82;;;1.60;;
23608;SDS011;11982;50.810;4.442;2023-01-04T06:00:16;5.05;;;1.42;;
23608;SDS011;11982;50.810;4.442;2023-01-04T06:02:42;2.25;;;1.27;;
23608;SDS011;11982;50.810;4.442;2023-01-04T06:05:08;4.13;;;1.38;;
23608;SDS011;11982;50.810;4.442;2023-01-04T06:07:36;4.85;;;1.23;;
23608;SDS011;11982;50.810;4.442;2023-01-04T06:10:02;1.65;;;1.15;;
23608;SDS011;11982;50.810;4.442;2023-01-04T06:12:28;4.72;;;1.30;;
23608;SDS011;11982;50.810;4.442;2023-01-04T06:14:54;2.88;;;1.10;;
23608;SDS011;11982;50.810;4.442;2023-01-04T06:17:19;1.48;;;0.98;;
23608;SDS011;11982;50.810;4.442;2023-01-04T06:19:45;2.28;;;1.20;;
23608;SDS011;11982;50.810;4.442;2023-01-04T06:22:11;4.68;;;1.05;;
23608;SDS011;11982;50.810;4.442;2023-01-04T06:24:36;3.55;;;1.35;;
23608;SDS011;11982;50.810;4.442;2023-01-04T06:27:02;4.55;;;1.15;;
23608;SDS011;11982;50.810;4.442;2023-01-04T06:29:28;6.38;;;1.33;;
23608;SDS011;11982;50.810;4.442;2023-01-04T06:31:54;2.28;;;1.00;;
23608;SDS011;11982;50.810;4.442;2023-01-04T06:34:19;2.45;;;1.35;;
23608;SDS011;11982;50.810;4.442;2023-01-04T06:36:45;3.13;;;1.20;;
23608;SDS011;11982;50.810;4.442;2023-01-04T06:39:11;4.45;;;1.33;;
23608;SDS011;11982;50.810;4.442;2023-01-04T06:41:37;3.20;;;1.25;;
23608;SDS011;11982;50.810;4.442;2023-01-04T06:44:03;5.05;;;1.00;;
23608;SDS011;11982;50.810;4.442;2023-01-04T06:46:29;3.20;;;1.27;;
23608;SDS011;11982;50.810;4.442;2023-01-04T06:48:54;7.25;;;1.10;;
23608;SDS011;11982;50.810;4.442;2023-01-04T06:51:20;5.70;;;1.70;;
23608;SDS011;11982;50.810;4.442;2023-01-04T06:53:46;4.10;;;1.25;;
23608;SDS011;11982;50.810;4.442;2023-01-04T06:56:12;2.90;;;1.17;;
23608;SDS011;11982;50.810;4.442;2023-01-04T06:58:38;6.00;;;1.40;;
23608;SDS011;11982;50.810;4.442;2023-01-04T07:01:04;6.68;;;1.52;;
23608;SDS011;11982;50.810;4.442;2023-01-04T07:03:30;3.15;;;1.50;;
23608;SDS011;11982;50.810;4.442;2023-01-04T07:05:57;4.97;;;1.50;;
23608;SDS011;11982;50.810;4.442;2023-01-04T07:08:22;6.50;;;1.40;;
23608;SDS011;11982;50.810;4.442;2023-01-04T07:10:49;3.10;;;1.23;;
23608;SDS011;11982;50.810;4.442;2023-01-04T07:13:14;6.03;;;1.55;;
23608;SDS011;11982;50.810;4.442;2023-01-04T07:15:40;9.02;;;1.17;;
23608;SDS011;11982;50.810;4.442;2023-01-04T07:18:09;3.47;;;0.93;;
23608;SDS011;11982;50.810;4.442;2023-01-04T07:20:35;4.30;;;0.95;;
23608;SDS011;11982;50.810;4.442;2023-01-04T07:23:02;4.05;;;1.33;;
23608;SDS011;11982;50.810;4.442;2023-01-04T07:25:28;5.25;;;1.70;;
23608;SDS011;11982;50.810;4.442;2023-01-04T07:27:54;7.78;;;1.00;;
23608;SDS011;11982;50.810;4.442;2023-01-04T07:30:20;4.18;;;0.98;;
23608;SDS011;11982;50.810;4.442;2023-01-04T07:32:47;5.38;;;1.33;;
23608;SDS011;11982;50.810;4.442;2023-01-04T07:35:13;1.85;;;0.90;;
23608;SDS011;11982;50.810;4.442;2023-01-04T07:37:40;4.03;;;1.15;;
23608;SDS011;11982;50.810;4.442;2023-01-04T07:40:07;4.10;;;0.98;;
23608;SDS011;11982;50.810;4.442;2023-01-04T07:42:34;5.35;;;1.42;;
23608;SDS011;11982;50.810;4.442;2023-01-04T07:45:00;5.45;;;1.10;;
23608;SDS011;11982;50.810;4.442;2023-01-04T07:47:26;3.78;;;1.00;;
23608;SDS011;11982;50.810;4.442;2023-01-04T07:49:52;2.75;;;1.17;;
23608;SDS011;11982;50.810;4.442;2023-01-04T07:52:18;3.38;;;1.23;;
23608;SDS011;11982;50.810;4.442;2023-01-04T07:54:44;4.70;;;0.98;;
23608;SDS011;11982;50.810;4.442;2023-01-04T07:57:09;6.88;;;1.42;;
23608;SDS011;11982;50.810;4.442;2023-01-04T07:59:35;3.72;;;1.40;;
23608;SDS011;11982;50.810;4.442;2023-01-04T08:02:01;5.70;;;1.38;;
23608;SDS011;11982;50.810;4.442;2023-01-04T08:04:26;3.53;;;1.20;;
23608;SDS011;11982;50.810;4.442;2023-01-04T08:06:52;5.32;;;1.48;;
23608;SDS011;11982;50.810;4.442;2023-01-04T08:09:18;2.20;;;1.20;;
23608;SDS011;11982;50.810;4.442;2023-01-04T08:11:44;3.45;;;1.23;;
23608;SDS011;11982;50.810;4.442;2023-01-04T08:14:10;8.20;;;1.58;;
23608;SDS011;11982;50.810;4.442;2023-01-04T08:16:37;3.83;;;1.10;;
23608;SDS011;11982;50.810;4.442;2023-01-04T08:19:14;3.70;;;1.33;;
23608;SDS011;11982;50.810;4.442;2023-01-04T08:21:42;4.95;;;1.35;;
23608;SDS011;11982;50.810;4.442;2023-01-04T08:24:12;3.25;;;1.25;;
23608;SDS011;11982;50.810;4.442;2023-01-04T08:26:39;8.70;;;2.30;;
23608;SDS011;11982;50.810;4.442;2023-01-04T08:29:05;4.43;;;1.00;;
23608;SDS011;11982;50.810;4.442;2023-01-04T08:31:31;2.05;;;0.80;;
23608;SDS011;11982;50.810;4.442;2023-01-04T08:33:59;2.25;;;0.98;;
23608;SDS011;11982;50.810;4.442;2023-01-04T08:36:28;2.42;;;0.95;;
23608;SDS011;11982;50.810;4.442;2023-01-04T08:38:59;2.20;;;0.68;;
23608;SDS011;11982;50.810;4.442;2023-01-04T08:41:28;6.03;;;1.17;;
23608;SDS011;11982;50.810;4.442;2023-01-04T08:43:55;4.28;;;1.10;;
23608;SDS011;11982;50.810;4.442;2023-01-04T08:46:20;3.70;;;1.45;;
23608;SDS011;11982;50.810;4.442;2023-01-04T08:48:46;4.30;;;1.15;;
23608;SDS011;11982;50.810;4.442;2023-01-04T08:51:13;5.85;;;1.70;;
23608;SDS011;11982;50.810;4.442;2023-01-04T08:53:40;3.58;;;1.80;;
23608;SDS011;11982;50.810;4.442;2023-01-04T08:56:07;5.55;;;1.88;;
23608;SDS011;11982;50.810;4.442;2023-01-04T08:58:34;5.05;;;1.55;;
23608;SDS011;11982;50.810;4.442;2023-01-04T09:01:07;5.78;;;1.73;;
23608;SDS011;11982;50.810;4.442;2023-01-04T09:03:35;6.10;;;1.58;;
23608;SDS011;11982;50.810;4.442;2023-01-04T09:06:05;6.00;;;1.73;;
23608;SDS011;11982;50.810;4.442;2023-01-04T09:08:33;8.07;;;1.98;;
23608;SDS011;11982;50.810;4.442;2023-01-04T09:11:03;6.85;;;2.03;;
23608;SDS011;11982;50.810;4.442;2023-01-04T09:13:30;2.92;;;1.15;;
23608;SDS011;11982;50.810;4.442;2023-01-04T09:16:01;4.78;;;1.27;;
23608;SDS011;11982;50.810;4.442;2023-01-04T09:18:28;6.68;;;1.13;;
23608;SDS011;11982;50.810;4.442;2023-01-04T09:20:54;4.88;;;1.55;;
23608;SDS011;11982;50.810;4.442;2023-01-04T09:23:20;6.57;;;1.27;;
23608;SDS011;11982;50.810;4.442;2023-01-04T09:25:46;7.53;;;1.40;;
23608;SDS011;11982;50.810;4.442;2023-01-04T09:28:12;4.50;;;1.15;;
23608;SDS011;11982;50.810;4.442;2023-01-04T09:30:37;4.20;;;1.08;;
23608;SDS011;11982;50.810;4.442;2023-01-04T09:33:03;1.30;;;0.70;;
23608;SDS011;11982;50.810;4.442;2023-01-04T09:35:28;4.95;;;1.10;;
23608;SDS011;11982;50.810;4.442;2023-01-04T09:37:54;2.22;;;0.90;;
23608;SDS011;11982;50.810;4.442;2023-01-04T09:40:22;5.18;;;1.10;;
23608;SDS011;11982;50.810;4.442;2023-01-04T09:45:23;5.53;;;1.27;;
23608;SDS011;11982;50.810;4.442;2023-01-04T09:50:35;1.55;;;0.90;;
23608;SDS011;11982;50.810;4.442;2023-01-04T09:53:23;6.05;;;1.80;;
23608;SDS011;11982;50.810;4.442;2023-01-04T09:56:07;5.60;;;1.48;;
23608;SDS011;11982;50.810;4.442;2023-01-04T09:58:40;3.80;;;0.95;;
23608;SDS011;11982;50.810;4.442;2023-01-04T10:01:14;4.40;;;0.85;;
23608;SDS011;11982;50.810;4.442;2023-01-04T10:03:56;4.40;;;1.10;;
23608;SDS011;11982;50.810;4.442;2023-01-04T10:06:31;4.35;;;0.82;;
23608;SDS011;11982;50.810;4.442;2023-01-04T10:09:00;7.70;;;1.25;;
23608;SDS011;11982;50.810;4.442;2023-01-04T10:11:32;5.38;;;0.70;;
23608;SDS011;11982;50.810;4.442;2023-01-04T10:19:58;5.45;;;1.33;;
23608;SDS011;11982;50.810;4.442;2023-01-04T10:25:53;5.28;;;1.05;;
23608;SDS011;11982;50.810;4.442;2023-01-04T10:33:46;5.50;;;1.00;;
23608;SDS011;11982;50.810;4.442;2023-01-04T10:36:23;5.25;;;0.82;;
23608;SDS011;11982;50.810;4.442;2023-01-04T10:39:15;5.30;;;0.80;;
23608;SDS011;11982;50.810;4.442;2023-01-04T10:41:59;6.15;;;1.10;;
23608;SDS011;11982;50.810;4.442;2023-01-04T10:50:12;2.40;;;0.70;;
23608;SDS011;11982;50.810;4.442;2023-01-04T10:55:40;2.50;;;0.90;;
23608;SDS011;11982;50.810;4.442;2023-01-04T10:58:33;3.13;;;0.70;;
23608;SDS011;11982;50.810;4.442;2023-01-04T11:01:09;4.35;;;1.70;;
23608;SDS011;11982;50.810;4.442;2023-01-04T11:03:41;1.80;;;0.95;;
23608;SDS011;11982;50.810;4.442;2023-01-04T11:06:11;3.97;;;0.75;;
23608;SDS011;11982;50.810;4.442;2023-01-04T11:08:55;2.22;;;0.80;;
23608;SDS011;11982;50.810;4.442;2023-01-04T11:11:34;4.70;;;1.20;;
23608;SDS011;11982;50.810;4.442;2023-01-04T11:14:06;3.05;;;0.80;;
23608;SDS011;11982;50.810;4.442;2023-01-04T11:16:32;3.97;;;0.80;;
23608;SDS011;11982;50.810;4.442;2023-01-04T11:18:58;1.50;;;0.50;;
23608;SDS011;11982;50.810;4.442;2023-01-04T11:21:27;5.28;;;0.90;;
23608;SDS011;11982;50.810;4.442;2023-01-04T11:23:58;3.47;;;0.80;;
23608;SDS011;11982;50.810;4.442;2023-01-04T11:26:30;4.07;;;1.02;;
23608;SDS011;11982;50.810;4.442;2023-01-04T11:29:03;2.33;;;0.93;;
23608;SDS011;11982;50.810;4.442;2023-01-04T11:31:35;2.90;;;0.90;;
23608;SDS011;11982;50.810;4.442;2023-01-04T11:34:17;3.30;;;1.13;;
23608;SDS011;11982;50.810;4.442;2023-01-04T11:36:44;6.45;;;1.23;;
23608;SDS011;11982;50.810;4.442;2023-01-04T11:39:18;2.88;;;0.93;;
23608;SDS011;11982;50.810;4.442;2023-01-04T11:41:58;3.60;;;1.00;;
23608;SDS011;11982;50.810;4.442;2023-01-04T11:44:28;3.55;;;1.13;;
23608;SDS011;11982;50.810;4.442;2023-01-04T11:49:46;3.50;;;0.95;;
23608;SDS011;11982;50.810;4.442;2023-01-04T12:00:31;3.45;;;1.13;;
23608;SDS011;11982;50.810;4.442;2023-01-04T12:03:13;5.55;;;1.30;;
23608;SDS011;11982;50.810;4.442;2023-01-04T12:05:41;4.82;;;0.80;;
23608;SDS011;11982;50.810;4.442;2023-01-04T12:08:17;3.65;;;1.30;;
23608;SDS011;11982;50.810;4.442;2023-01-04T12:10:51;3.35;;;1.33;;
23608;SDS011;11982;50.810;4.442;2023-01-04T12:13:17;2.35;;;1.30;;
23608;SDS011;11982;50.810;4.442;2023-01-04T12:15:48;4.38;;;1.15;;
23608;SDS011;11982;50.810;4.442;2023-01-04T12:18:28;5.60;;;2.00;;
23608;SDS011;11982;50.810;4.442;2023-01-04T12:20:59;1.60;;;1.40;;
23608;SDS011;11982;50.810;4.442;2023-01-04T12:23:26;4.68;;;1.63;;
23608;SDS011;11982;50.810;4.442;2023-01-04T12:25:52;2.53;;;1.30;;
23608;SDS011;11982;50.810;4.442;2023-01-04T12:28:35;5.95;;;1.55;;
23608;SDS011;11982;50.810;4.442;2023-01-04T12:36:51;1.77;;;1.00;;
23608;SDS011;11982;50.810;4.442;2023-01-04T12:39:18;6.97;;;1.33;;
23608;SDS011;11982;50.810;4.442;2023-01-04T12:50:02;0.68;;;0.68;;
23608;SDS011;11982;50.810;4.442;2023-01-04T12:52:41;5.93;;;1.55;;
23608;SDS011;11982;50.810;4.442;2023-01-04T12:57:44;5.35;;;1.33;;
23608;SDS011;11982;50.810;4.442;2023-01-04T13:00:10;3.67;;;1.27;;
23608;SDS011;11982;50.810;4.442;2023-01-04T13:02:43;2.42;;;1.27;;
23608;SDS011;11982;50.810;4.442;2023-01-04T13:24:40;6.00;;;1.90;;
23608;SDS011;11982;50.810;4.442;2023-01-04T13:27:08;2.50;;;1.15;;
23608;SDS011;11982;50.810;4.442;2023-01-04T13:29:42;3.05;;;1.20;;
23608;SDS011;11982;50.810;4.442;2023-01-04T13:34:40;0.93;;;0.93;;
23608;SDS011;11982;50.810;4.442;2023-01-04T13:40:11;2.60;;;1.30;;
23608;SDS011;11982;50.810;4.442;2023-01-04T13:42:49;2.20;;;1.20;;
23608;SDS011;11982;50.810;4.442;2023-01-04T13:45:45;3.97;;;1.10;;
23608;SDS011;11982;50.810;4.442;2023-01-04T13:48:14;3.70;;;1.02;;
23608;SDS011;11982;50.810;4.442;2023-01-04T13:50:44;4.85;;;1.20;;
23608;SDS011;11982;50.810;4.442;2023-01-04T13:53:26;4.03;;;1.20;;
23608;SDS011;11982;50.810;4.442;2023-01-04T13:55:54;1.13;;;0.80;;
23608;SDS011;11982;50.810;4.442;2023-01-04T13:58:22;2.80;;;1.30;;
23608;SDS011;11982;50.810;4.442;2023-01-04T14:01:03;3.63;;;1.50;;
23608;SDS011;11982;50.810;4.442;2023-01-04T14:03:43;2.67;;;1.02;;
23608;SDS011;11982;50.810;4.442;2023-01-04T14:08:36;3.30;;;1.60;;
23608;SDS011;11982;50.810;4.442;2023-01-04T14:11:15;2.65;;;1.23;;
23608;SDS011;11982;50.810;4.442;2023-01-04T14:14:04;1.58;;;0.77;;
23608;SDS011;11982;50.810;4.442;2023-01-04T14:16:51;1.95;;;1.02;;
23608;SDS011;11982;50.810;4.442;2023-01-04T14:19:48;0.65;;;0.63;;
23608;SDS011;11982;50.810;4.442;2023-01-04T14:22:57;2.58;;;0.82;;
23608;SDS011;11982;50.810;4.442;2023-01-04T14:27:53;2.72;;;1.00;;
23608;SDS011;11982;50.810;4.442;2023-01-04T14:38:37;1.83;;;1.23;;
23608;SDS011;11982;50.810;4.442;2023-01-04T14:43:45;1.58;;;1.13;;
23608;SDS011;11982;50.810;4.442;2023-01-04T14:46:12;4.78;;;1.20;;
23608;SDS011;11982;50.810;4.442;2023-01-04T14:48:37;3.00;;;1.30;;
23608;SDS011;11982;50.810;4.442;2023-01-04T14:51:03;4.50;;;1.50;;
23608;SDS011;11982;50.810;4.442;2023-01-04T14:53:30;3.25;;;1.50;;
23608;SDS011;11982;50.810;4.442;2023-01-04T14:55:56;6.28;;;1.58;;
23608;SDS011;11982;50.810;4.442;2023-01-04T14:58:21;5.07;;;1.60;;
23608;SDS011;11982;50.810;4.442;2023-01-04T15:00:47;4.97;;;1.85;;
23608;SDS011;11982;50.810;4.442;2023-01-04T15:03:13;3.75;;;1.60;;
23608;SDS011;11982;50.810;4.442;2023-01-04T15:05:39;5.70;;;2.10;;
23608;SDS011;11982;50.810;4.442;2023-01-04T15:08:08;5.50;;;2.40;;
23608;SDS011;11982;50.810;4.442;2023-01-04T15:10:35;5.10;;;2.17;;
23608;SDS011;11982;50.810;4.442;2023-01-04T15:13:01;14.35;;;5.03;;
23608;SDS011;11982;50.810;4.442;2023-01-04T15:15:28;9.20;;;2.92;;
23608;SDS011;11982;50.810;4.442;2023-01-04T15:17:57;12.57;;;3.28;;
23608;SDS011;11982;50.810;4.442;2023-01-04T15:20:23;21.77;;;4.50;;
23608;SDS011;11982;50.810;4.442;2023-01-04T15:22:48;9.30;;;2.72;;
23608;SDS011;11982;50.810;4.442;2023-01-04T15:25:14;12.50;;;2.92;;
23608;SDS011;11982;50.810;4.442;2023-01-04T15:27:40;14.00;;;2.95;;
23608;SDS011;11982;50.810;4.442;2023-01-04T15:30:06;21.38;;;6.30;;
23608;SDS011;11982;50.810;4.442;2023-01-04T15:32:32;13.80;;;3.05;;
23608;SDS011;11982;50.810;4.442;2023-01-04T15:34:59;15.95;;;2.78;;
23608;SDS011;11982;50.810;4.442;2023-01-04T15:37:25;26.65;;;4.15;;
23608;SDS011;11982;50.810;4.442;2023-01-04T15:39:51;22.95;;;4.10;;
23608;SDS011;11982;50.810;4.442;2023-01-04T15:42:17;26.05;;;4.10;;
23608;SDS011;11982;50.810;4.442;2023-01-04T15:45:01;24.98;;;4.55;;
23608;SDS011;11982;50.810;4.442;2023-01-04T15:47:27;28.13;;;4.60;;
23608;SDS011;11982;50.810;4.442;2023-01-04T15:49:53;27.80;;;3.92;;
23608;SDS011;11982;50.810;4.442;2023-01-04T15:52:19;20.17;;;4.53;;
23608;SDS011;11982;50.810;4.442;2023-01-04T15:54:45;25.65;;;3.90;;
23608;SDS011;11982;50.810;4.442;2023-01-04T15:57:10;25.70;;;4.57;;
23608;SDS011;11982;50.810;4.442;2023-01-04T15:59:37;32.30;;;4.82;;
23608;SDS011;11982;50.810;4.442;2023-01-04T16:02:04;30.35;;;4.57;;
23608;SDS011;11982;50.810;4.442;2023-01-04T16:04:30;30.27;;;5.68;;
23608;SDS011;11982;50.810;4.442;2023-01-04T16:06:56;33.22;;;5.22;;
23608;SDS011;11982;50.810;4.442;2023-01-04T16:09:22;21.35;;;4.38;;
23608;SDS011;11982;50.810;4.442;2023-01-04T16:11:48;31.70;;;4.68;;
23608;SDS011;11982;50.810;4.442;2023-01-04T16:14:32;36.28;;;5.43;;
23608;SDS011;11982;50.810;4.442;2023-01-04T16:16:58;41.00;;;5.38;;
23608;SDS011;11982;50.810;4.442;2023-01-04T16:19:24;41.08;;;6.60;;
23608;SDS011;11982;50.810;4.442;2023-01-04T16:21:49;29.30;;;5.25;;
23608;SDS011;11982;50.810;4.442;2023-01-04T16:24:15;34.35;;;5.80;;
23608;SDS011;11982;50.810;4.442;2023-01-04T16:26:41;33.28;;;5.93;;
23608;SDS011;11982;50.810;4.442;2023-01-04T16:29:06;31.15;;;4.70;;
23608;SDS011;11982;50.810;4.442;2023-01-04T16:31:35;37.97;;;5.95;;
23608;SDS011;11982;50.810;4.442;2023-01-04T16:34:02;44.10;;;6.38;;
23608;SDS011;11982;50.810;4.442;2023-01-04T16:36:28;35.47;;;5.40;;
23608;SDS011;11982;50.810;4.442;2023-01-04T16:38:54;42.20;;;6.30;;
23608;SDS011;11982;50.810;4.442;2023-01-04T16:41:20;41.25;;;6.55;;
23608;SDS011;11982;50.810;4.442;2023-01-04T16:48:58;37.78;;;5.80;;
23608;SDS011;11982;50.810;4.442;2023-01-04T16:51:30;42.40;;;7.60;;
23608;SDS011;11982;50.810;4.442;2023-01-04T16:53:57;38.10;;;5.97;;
23608;SDS011;11982;50.810;4.442;2023-01-04T16:56:25;36.63;;;5.90;;
23608;SDS011;11982;50.810;4.442;2023-01-04T16:58:51;32.75;;;5.35;;
23608;SDS011;11982;50.810;4.442;2023-01-04T17:01:21;44.13;;;7.13;;
23608;SDS011;11982;50.810;4.442;2023-01-04T17:03:49;39.63;;;6.75;;
23608;SDS011;11982;50.810;4.442;2023-01-04T17:06:25;51.55;;;6.47;;
23608;SDS011;11982;50.810;4.442;2023-01-04T17:08:53;52.83;;;7.80;;
23608;SDS011;11982;50.810;4.442;2023-01-04T17:11:21;55.90;;;7.35;;
23608;SDS011;11982;50.810;4.442;2023-01-04T17:13:49;42.33;;;7.03;;
23608;SDS011;11982;50.810;4.442;2023-01-04T17:16:14;42.53;;;7.13;;
23608;SDS011;11982;50.810;4.442;2023-01-04T17:18:41;45.50;;;7.72;;
23608;SDS011;11982;50.810;4.442;2023-01-04T17:21:09;46.22;;;7.38;;
23608;SDS011;11982;50.810;4.442;2023-01-04T17:23:40;45.85;;;7.05;;
23608;SDS011;11982;50.810;4.442;2023-01-04T17:26:11;51.08;;;8.15;;
23608;SDS011;11982;50.810;4.442;2023-01-04T17:28:41;48.45;;;6.90;;